This is the latest recevied weather packets stored in our database for station/object S57ZT-10. If no packets are shown the sender has not sent any weather packets the latest 10 day(s).
| Time | Temp. | Humidity | Pressure | Rain* | Wind** | Luminosity | Snow |
|---|---|---|---|---|---|---|---|
| 1777342515 | 15° C | 42% | 1021.5 hPa | - | - | - | - |
| 1777340697 | 15.56° C | 42% | 1021.5 hPa | - | - | - | - |
| 1777339835 | 15.56° C | 41% | 1021.6 hPa | - | - | - | - |
| 1777338897 | 15.56° C | 41% | 1021.5 hPa | - | - | - | - |
| 1777335304 | 16.11° C | 39% | 1021.5 hPa | - | - | - | - |
| 1777334398 | 16.11° C | 39% | 1021.6 hPa | - | - | - | - |
| 1777312796 | 21.11° C | 31% | 1020.4 hPa | - | - | - | - |
| 1777311007 | 21.67° C | 31% | 1020.1 hPa | - | - | - | - |
| 1777310091 | 22.22° C | 30% | 1020 hPa | - | - | - | - |
| 1777306491 | 23.89° C | 27% | 1019.8 hPa | - | - | - | - |
| 1777305600 | 24.44° C | 26% | 1019.7 hPa | - | - | - | - |
| 1777303800 | 25.56° C | 25% | 1019.9 hPa | - | - | - | - |
| 1777302056 | 26.67° C | 23% | 1020 hPa | - | - | - | - |
| 1777296605 | 27.22° C | 23% | 1020.7 hPa | - | - | - | - |
| 1777295690 | 28.89° C | 21% | 1020.8 hPa | - | - | - | - |
| 1777294801 | 28.89° C | 22% | 1020.9 hPa | - | - | - | - |
| 1777292999 | 28.33° C | 22% | 1021.3 hPa | - | - | - | - |
| 1777288483 | 26.11° C | 22% | 1022.4 hPa | - | - | - | - |
| 1777286683 | 23.89° C | 25% | 1022.9 hPa | - | - | - | - |
| 1777285797 | 23.89° C | 25% | 1023.2 hPa | - | - | - | - |
| 1777284895 | 24.44° C | 25% | 1023.3 hPa | - | - | - | - |
| 1777282180 | 23.89° C | 25% | 1023.7 hPa | - | - | - | - |
| 1777281284 | 22.78° C | 26% | 1024 hPa | - | - | - | - |
| 1777278581 | 22.78° C | 26% | 1024.5 hPa | - | - | - | - |
| 1777277695 | 22.22° C | 27% | 1024.4 hPa | - | - | - | - |
* Rain since midnight (hover to see other rain measurements)
** Current wind speed in m/s (hover to see current wind gust speed)